createdAt,value
2023-10-20T00:02:00.617Z,13.15
2023-10-20T00:04:05.093Z,14.32
2023-10-20T00:06:06.881Z,15.23
2023-10-20T00:08:08.774Z,12.70
2023-10-20T00:10:12.558Z,16.80
2023-10-20T00:12:14.976Z,9.00
2023-10-20T00:14:16.634Z,15.65
2023-10-20T00:16:25.900Z,10.63
2023-10-20T00:18:27.553Z,12.48
2023-10-20T00:20:30.023Z,9.45
2023-10-20T00:22:31.944Z,12.10
2023-10-20T00:24:33.871Z,14.23
2023-10-20T00:26:35.892Z,11.27
2023-10-20T00:28:37.937Z,8.25
2023-10-20T00:30:42.991Z,11.15
2023-10-20T00:32:46.533Z,11.43
2023-10-20T00:34:48.433Z,10.73
2023-10-20T00:36:50.083Z,12.50
2023-10-20T00:38:51.723Z,9.48
2023-10-20T00:40:54.218Z,9.50
2023-10-20T00:42:55.955Z,7.78
2023-10-20T00:44:57.653Z,9.27
2023-10-20T00:46:59.899Z,7.78
2023-10-20T00:49:03.185Z,9.82
2023-10-20T00:51:07.156Z,11.85
2023-10-20T00:53:10.458Z,8.98
2023-10-20T00:55:14.351Z,10.52
2023-10-20T00:57:17.518Z,11.57
2023-10-20T00:59:19.261Z,13.55
2023-10-20T01:01:20.935Z,20.63
2023-10-20T01:03:23.893Z,10.70
2023-10-20T01:05:26.213Z,12.85
2023-10-20T01:07:31.642Z,12.73
2023-10-20T01:09:33.285Z,15.23
2023-10-20T01:11:35.085Z,10.93
2023-10-20T01:13:37.579Z,14.13
2023-10-20T01:15:39.665Z,11.10
2023-10-20T01:17:41.352Z,8.57
2023-10-20T01:19:43.145Z,8.82
2023-10-20T01:21:44.749Z,9.32
2023-10-20T01:23:46.494Z,8.20
2023-10-20T01:25:48.219Z,10.95
2023-10-20T01:27:49.842Z,9.95
2023-10-20T01:29:51.627Z,13.55
2023-10-20T01:31:53.420Z,11.85
2023-10-20T01:33:55.131Z,8.45
2023-10-20T01:35:57.147Z,8.60
2023-10-20T01:37:58.818Z,7.43
2023-10-20T01:40:00.545Z,6.85
2023-10-20T01:42:02.357Z,8.85
2023-10-20T01:44:04.374Z,6.25
2023-10-20T01:46:06.189Z,6.00
2023-10-20T01:48:08.360Z,5.25
2023-10-20T01:50:10.625Z,5.65
2023-10-20T01:52:13.001Z,8.13
2023-10-20T01:54:14.737Z,8.50
2023-10-20T01:56:16.473Z,8.18
2023-10-20T01:58:19.803Z,6.00
2023-10-20T02:00:21.585Z,7.55
2023-10-20T02:02:23.357Z,10.93
2023-10-20T02:04:25.203Z,9.50
2023-10-20T02:06:27.363Z,9.63
2023-10-20T02:08:28.988Z,9.77
2023-10-20T02:10:32.378Z,8.93
2023-10-20T02:12:34.875Z,9.65
2023-10-20T02:14:36.711Z,10.52
2023-10-20T02:16:38.514Z,11.50
2023-10-20T02:18:40.990Z,11.07
2023-10-20T02:20:42.886Z,11.38
2023-10-20T02:22:44.669Z,10.90
2023-10-20T02:24:46.639Z,10.43
2023-10-20T02:26:49.016Z,11.85
2023-10-20T02:28:50.910Z,11.45
2023-10-20T02:30:52.606Z,9.60
2023-10-20T02:32:55.875Z,8.68
2023-10-20T02:34:57.710Z,9.88
2023-10-20T02:36:59.446Z,8.25
2023-10-20T02:39:01.150Z,9.15
2023-10-20T02:41:05.177Z,6.95
2023-10-20T02:43:08.270Z,9.40
2023-10-20T02:45:12.389Z,8.52
2023-10-20T02:47:14.335Z,12.63
2023-10-20T02:49:16.134Z,11.98
2023-10-20T02:51:19.003Z,10.88
2023-10-20T02:53:20.911Z,14.57
2023-10-20T02:55:23.002Z,11.40
2023-10-20T02:57:28.598Z,8.98
2023-10-20T02:59:30.277Z,12.07
2023-10-20T03:01:31.906Z,10.48
2023-10-20T03:03:33.919Z,10.15
2023-10-20T03:05:35.805Z,14.20
2023-10-20T03:07:37.487Z,9.25
2023-10-20T03:09:39.375Z,10.52
2023-10-20T03:11:41.933Z,6.50
2023-10-20T03:13:43.738Z,9.63
2023-10-20T03:15:45.432Z,7.45
2023-10-20T03:17:47.202Z,7.05
2023-10-20T03:19:50.634Z,8.93
2023-10-20T03:21:53.586Z,9.50
2023-10-20T03:23:57.176Z,6.65
2023-10-20T03:26:07.133Z,7.38
2023-10-20T03:28:09.286Z,5.07
2023-10-20T03:30:11.362Z,6.13
2023-10-20T03:32:13.211Z,5.53
2023-10-20T03:34:14.932Z,5.05
2023-10-20T03:36:16.664Z,5.40
2023-10-20T03:38:18.796Z,7.90
2023-10-20T03:40:20.478Z,5.80
2023-10-20T03:42:23.031Z,5.47
2023-10-20T03:44:24.849Z,7.90
2023-10-20T03:46:28.135Z,7.18
2023-10-20T03:48:30.761Z,5.55
2023-10-20T03:50:36.925Z,5.32
2023-10-20T03:52:38.734Z,7.28
2023-10-20T03:54:40.356Z,4.07
2023-10-20T03:56:42.766Z,5.10
2023-10-20T03:58:47.779Z,4.10
2023-10-20T04:00:54.553Z,3.65
2023-10-20T04:02:57.822Z,1.98
2023-10-20T04:04:59.564Z,3.10
2023-10-20T04:07:01.280Z,2.63
2023-10-20T04:09:08.820Z,4.20
2023-10-20T04:11:10.553Z,5.72
2023-10-20T04:13:13.593Z,4.63
2023-10-20T04:15:16.600Z,7.95
2023-10-20T04:17:18.614Z,8.52
2023-10-20T04:19:22.574Z,9.07
2023-10-20T04:21:24.227Z,8.82
2023-10-20T04:23:27.558Z,9.27
2023-10-20T04:25:29.944Z,9.45
2023-10-20T04:27:49.282Z,9.77
2023-10-20T04:30:09.811Z,7.88
2023-10-20T04:32:30.036Z,7.65
2023-10-20T04:34:50.384Z,8.20
2023-10-20T04:37:10.424Z,8.55
2023-10-20T04:39:30.696Z,8.90
2023-10-20T04:41:51.869Z,8.77
2023-10-20T04:44:11.944Z,7.82
2023-10-20T04:46:32.017Z,8.25
2023-10-20T04:48:59.725Z,6.35
2023-10-20T04:51:10.948Z,5.22
2023-10-20T04:53:43.357Z,4.38
2023-10-20T04:56:03.297Z,3.20
2023-10-20T04:58:31.101Z,6.43
2023-10-20T05:00:37.537Z,1.73
2023-10-20T05:02:52.762Z,1.58
2023-10-20T05:04:54.719Z,3.58
2023-10-20T05:06:59.728Z,0.90
2023-10-20T05:09:01.484Z,0.95
2023-10-20T05:11:03.186Z,1.52
2023-10-20T05:13:05.059Z,0.80
2023-10-20T05:15:08.389Z,3.47
2023-10-20T05:17:12.322Z,1.58
2023-10-20T05:19:14.123Z,1.30
2023-10-20T05:21:15.837Z,1.95
2023-10-20T05:23:17.556Z,0.95
2023-10-20T05:25:19.211Z,2.58
2023-10-20T05:27:20.896Z,2.05
2023-10-20T05:29:22.562Z,2.35
2023-10-20T05:31:28.243Z,3.28
2023-10-20T05:33:31.011Z,2.22
2023-10-20T05:35:32.825Z,1.30
2023-10-20T05:37:34.551Z,1.98
2023-10-20T05:39:36.314Z,1.92
2023-10-20T05:41:38.027Z,4.10
2023-10-20T05:43:39.914Z,4.57
2023-10-20T05:45:41.888Z,2.40
2023-10-20T05:47:43.932Z,3.88
2023-10-20T05:49:45.680Z,3.10
2023-10-20T05:51:47.446Z,3.67
2023-10-20T05:53:49.118Z,3.22
2023-10-20T05:55:50.835Z,5.07
2023-10-20T05:57:52.439Z,4.45
2023-10-20T06:00:01.289Z,3.75
2023-10-20T06:02:04.627Z,4.20
2023-10-20T06:04:06.499Z,5.10
2023-10-20T06:06:08.274Z,5.93
2023-10-20T06:08:10.076Z,1.77
2023-10-20T06:10:15.201Z,3.53
2023-10-20T06:12:17.007Z,1.63
2023-10-20T06:14:18.657Z,1.52
2023-10-20T06:16:21.638Z,1.98
2023-10-20T06:18:34.954Z,3.47
2023-10-20T06:20:41.269Z,5.10
2023-10-20T06:22:43.681Z,7.60
2023-10-20T06:24:45.363Z,4.30
2023-10-20T06:26:49.005Z,2.17
2023-10-20T06:28:50.957Z,3.83
2023-10-20T06:30:52.659Z,3.55
2023-10-20T06:32:56.922Z,4.00
2023-10-20T06:35:02.015Z,3.08
2023-10-20T06:37:09.930Z,2.35
2023-10-20T06:39:14.693Z,2.38
2023-10-20T06:41:16.404Z,2.17
2023-10-20T06:43:18.134Z,3.35
2023-10-20T06:45:19.896Z,2.13
2023-10-20T06:47:37.932Z,1.88
2023-10-20T06:49:39.813Z,1.27
2023-10-20T06:51:42.160Z,4.47
2023-10-20T06:53:43.872Z,1.58
2023-10-20T06:56:09.409Z,2.05
2023-10-20T06:58:10.826Z,2.05
2023-10-20T07:00:19.230Z,3.08
2023-10-20T07:02:21.070Z,2.45
2023-10-20T07:04:22.947Z,2.47
2023-10-20T07:06:24.645Z,2.92
2023-10-20T07:08:26.384Z,6.88
2023-10-20T07:10:39.833Z,3.17
2023-10-20T07:12:41.444Z,2.63
2023-10-20T07:14:44.857Z,3.58
2023-10-20T07:16:46.723Z,3.10
2023-10-20T07:18:49.162Z,3.33
2023-10-20T07:20:52.004Z,3.22
2023-10-20T07:22:53.892Z,5.28
2023-10-20T07:24:57.103Z,3.58
2023-10-20T07:26:59.591Z,4.53
2023-10-20T07:29:01.449Z,4.47
2023-10-20T07:31:14.384Z,3.63
2023-10-20T07:33:16.374Z,5.32
2023-10-20T07:35:19.229Z,3.03
2023-10-20T07:37:20.959Z,3.65
2023-10-20T07:39:23.919Z,3.65
2023-10-20T07:41:25.608Z,4.45
2023-10-20T07:43:27.299Z,3.28
2023-10-20T07:45:29.411Z,3.47
2023-10-20T07:47:31.496Z,3.22
2023-10-20T07:49:33.304Z,3.50
2023-10-20T07:51:35.053Z,4.22
2023-10-20T07:53:36.859Z,3.63
2023-10-20T07:55:38.457Z,3.35
2023-10-20T07:57:40.154Z,3.88
2023-10-20T07:59:42.255Z,6.90
2023-10-20T08:01:43.983Z,3.97
2023-10-20T08:03:49.198Z,4.20
2023-10-20T08:05:51.761Z,2.88
2023-10-20T08:07:54.384Z,4.50
2023-10-20T08:09:59.963Z,5.90
2023-10-20T08:12:01.935Z,2.35
2023-10-20T08:14:03.604Z,3.53
2023-10-20T08:16:08.052Z,4.40
2023-10-20T08:18:10.973Z,3.80
2023-10-20T08:20:13.994Z,2.72
2023-10-20T08:22:16.137Z,6.43
2023-10-20T08:24:19.222Z,7.65
2023-10-20T08:26:21.312Z,4.60
2023-10-20T08:28:23.113Z,5.22
2023-10-20T08:30:24.895Z,3.92
2023-10-20T08:32:26.642Z,6.22
2023-10-20T08:34:28.928Z,5.45
2023-10-20T08:36:30.835Z,3.97
2023-10-20T08:38:32.565Z,4.65
2023-10-20T08:41:01.332Z,4.30
2023-10-20T08:42:59.013Z,4.75
2023-10-20T08:45:00.985Z,4.68
2023-10-20T08:47:03.520Z,4.03
2023-10-20T08:49:08.104Z,4.32
2023-10-20T08:51:12.018Z,6.88
2023-10-20T08:53:16.167Z,6.22
2023-10-20T08:55:18.164Z,7.32
2023-10-20T08:57:19.960Z,9.25
2023-10-20T08:59:21.646Z,9.18
2023-10-20T09:01:23.427Z,9.43
2023-10-20T09:03:29.094Z,8.57
2023-10-20T09:05:31.307Z,8.55
2023-10-20T09:07:33.118Z,9.63
2023-10-20T09:09:34.859Z,10.80
2023-10-20T09:11:36.757Z,12.18
2023-10-20T09:13:41.413Z,11.00
2023-10-20T09:15:43.203Z,8.52
2023-10-20T09:17:46.256Z,8.77
2023-10-20T09:19:48.097Z,11.02
2023-10-20T09:21:49.806Z,8.70
2023-10-20T09:24:05.006Z,13.20
2023-10-20T09:26:07.291Z,10.38
2023-10-20T09:28:09.294Z,11.45
2023-10-20T09:30:12.100Z,7.70
2023-10-20T09:32:13.952Z,12.13
2023-10-20T09:34:15.982Z,9.05
2023-10-20T09:36:18.598Z,11.45
2023-10-20T09:38:29.429Z,7.68
2023-10-20T09:40:31.131Z,7.28
2023-10-20T09:42:46.316Z,7.18
2023-10-20T09:44:59.576Z,9.23
2023-10-20T09:47:19.011Z,8.68
2023-10-20T09:49:21.809Z,6.82
2023-10-20T09:51:24.358Z,10.27
2023-10-20T09:53:27.034Z,8.52
2023-10-20T09:55:29.595Z,9.50
2023-10-20T09:57:31.650Z,11.77
2023-10-20T09:59:33.664Z,6.38
2023-10-20T10:01:35.626Z,6.30
2023-10-20T10:03:42.349Z,4.10
2023-10-20T10:05:45.173Z,5.05
2023-10-20T10:07:47.566Z,4.97
2023-10-20T10:09:52.449Z,6.63
2023-10-20T10:11:56.853Z,5.57
2023-10-20T10:14:03.660Z,5.05
2023-10-20T10:16:14.809Z,7.13
2023-10-20T10:18:19.193Z,2.90
2023-10-20T10:20:25.790Z,3.47
2023-10-20T10:22:29.591Z,2.60
2023-10-20T10:24:33.261Z,2.75
2023-10-20T10:26:36.329Z,3.83
2023-10-20T10:28:48.897Z,1.10
2023-10-20T10:30:53.054Z,0.45
2023-10-20T10:32:55.212Z,4.53
2023-10-20T10:34:58.330Z,2.42
2023-10-20T10:37:00.503Z,1.75
2023-10-20T10:39:02.582Z,1.08
2023-10-20T10:41:04.281Z,0.80
2023-10-20T10:43:06.200Z,11.52
2023-10-20T10:45:37.357Z,6.32
2023-10-20T10:47:39.088Z,2.03
2023-10-20T10:49:47.254Z,2.90
2023-10-20T10:51:50.992Z,1.17
2023-10-20T10:53:54.248Z,5.43
2023-10-20T10:55:57.249Z,1.20
2023-10-20T10:57:59.425Z,9.00
2023-10-20T11:00:05.061Z,1.15
2023-10-20T11:02:07.011Z,1.65
2023-10-20T11:04:13.121Z,1.20
2023-10-20T11:06:15.236Z,0.88
2023-10-20T11:08:19.961Z,3.30
2023-10-20T11:10:21.827Z,3.33
2023-10-20T11:12:24.058Z,0.50
2023-10-20T11:14:26.705Z,3.95
2023-10-20T11:16:28.482Z,3.42
2023-10-20T11:18:30.631Z,4.25
2023-10-20T11:20:39.212Z,3.15
2023-10-20T11:22:41.282Z,6.47
2023-10-20T11:24:43.242Z,2.70
2023-10-20T11:26:55.744Z,1.02
2023-10-20T11:28:58.980Z,4.55
2023-10-20T11:31:00.862Z,0.47
2023-10-20T11:33:02.995Z,2.67
2023-10-20T11:35:06.819Z,1.67
2023-10-20T11:37:10.096Z,2.30
2023-10-20T11:39:14.294Z,3.78
2023-10-20T11:41:16.182Z,3.10
2023-10-20T11:43:17.902Z,2.22
2023-10-20T11:45:21.854Z,7.40
2023-10-20T11:47:23.606Z,6.28
2023-10-20T11:49:28.277Z,1.35
2023-10-20T11:51:30.433Z,1.92
2023-10-20T11:53:32.421Z,4.45
2023-10-20T11:55:34.869Z,1.25
2023-10-20T11:57:37.588Z,2.13
2023-10-20T11:59:43.597Z,1.33
2023-10-20T12:01:45.968Z,1.10
2023-10-20T12:03:50.645Z,1.13
2023-10-20T12:05:58.363Z,1.77
2023-10-20T12:08:01.484Z,4.18
2023-10-20T12:12:37.613Z,1.25
2023-10-20T12:14:39.421Z,2.97
2023-10-20T12:16:42.205Z,1.20
2023-10-20T12:18:43.919Z,3.58
2023-10-20T12:20:47.417Z,1.73
2023-10-20T12:22:52.503Z,0.75
2023-10-20T12:24:54.732Z,4.30
2023-10-20T12:26:56.756Z,2.05
2023-10-20T12:29:03.125Z,1.35
2023-10-20T12:31:05.145Z,1.48
2023-10-20T12:33:07.150Z,2.20
2023-10-20T12:35:16.991Z,2.88
2023-10-20T12:37:19.105Z,22.52
2023-10-20T12:39:21.977Z,3.28
2023-10-20T12:41:26.441Z,5.07
2023-10-20T12:43:28.254Z,1.92
2023-10-20T12:45:34.034Z,12.18
2023-10-20T12:47:38.293Z,11.23
2023-10-20T12:49:40.980Z,3.28
2023-10-20T12:51:43.342Z,4.50
2023-10-20T12:53:45.049Z,1.63
2023-10-20T12:55:46.782Z,1.35
2023-10-20T12:57:48.590Z,1.40
2023-10-20T12:59:50.308Z,2.92
2023-10-20T13:01:52.067Z,1.50
2023-10-20T13:03:53.937Z,1.05
2023-10-20T13:05:56.535Z,2.28
2023-10-20T13:07:58.695Z,1.50
2023-10-20T13:10:15.579Z,2.78
2023-10-20T13:12:17.929Z,1.88
2023-10-20T13:14:19.586Z,1.88
2023-10-20T13:16:21.629Z,2.85
2023-10-20T13:18:23.364Z,1.90
2023-10-20T13:20:29.894Z,2.95
2023-10-20T13:22:31.715Z,1.65
2023-10-20T13:24:34.034Z,3.55
2023-10-20T13:26:36.112Z,3.33
2023-10-20T13:28:37.830Z,2.13
2023-10-20T13:30:39.558Z,3.92
2023-10-20T13:32:41.443Z,2.85
2023-10-20T13:34:43.144Z,1.83
2023-10-20T13:36:44.827Z,2.97
2023-10-20T13:38:46.673Z,9.15
2023-10-20T13:40:48.495Z,2.85
2023-10-20T13:42:50.147Z,2.08
2023-10-20T13:44:51.862Z,4.82
2023-10-20T13:46:53.604Z,3.47
2023-10-20T13:48:56.027Z,3.90
2023-10-20T13:50:57.793Z,4.88
2023-10-20T13:52:59.850Z,1.27
2023-10-20T13:55:01.524Z,1.73
2023-10-20T13:57:03.648Z,5.28
2023-10-20T13:59:05.384Z,0.82
2023-10-20T14:01:07.607Z,1.02
2023-10-20T14:03:09.631Z,0.60
2023-10-20T14:05:13.696Z,0.22
2023-10-20T14:07:15.438Z,0.88
2023-10-20T14:09:17.659Z,1.05
2023-10-20T14:11:19.644Z,3.17
2023-10-20T14:13:21.984Z,0.85
2023-10-20T14:15:24.388Z,0.57
2023-10-20T14:17:26.287Z,0.77
2023-10-20T14:19:28.147Z,0.60
2023-10-20T14:21:30.019Z,1.08
2023-10-20T14:23:33.225Z,1.42
2023-10-20T14:25:35.265Z,0.38
2023-10-20T14:27:40.053Z,0.70
2023-10-20T14:29:42.223Z,0.25
2023-10-20T14:31:43.949Z,1.25
2023-10-20T14:33:45.732Z,1.63
2023-10-20T14:35:47.508Z,3.40
2023-10-20T14:37:49.225Z,0.68
2023-10-20T14:39:50.847Z,0.60
2023-10-20T14:41:53.126Z,1.73
2023-10-20T14:43:54.835Z,0.60
2023-10-20T14:45:57.804Z,1.08
2023-10-20T14:47:59.637Z,2.65
2023-10-20T14:50:01.423Z,3.50
2023-10-20T14:52:03.373Z,2.72
2023-10-20T14:54:05.153Z,1.63
2023-10-20T14:56:07.852Z,2.05
2023-10-20T14:58:09.683Z,0.82
2023-10-20T15:00:13.786Z,2.35
2023-10-20T15:02:15.565Z,1.65
2023-10-20T15:04:28.987Z,0.70
2023-10-20T15:06:32.299Z,1.40
2023-10-20T15:08:34.715Z,3.45
2023-10-20T15:10:37.303Z,2.30
2023-10-20T15:12:42.054Z,2.60
2023-10-20T15:14:44.470Z,2.25
2023-10-20T15:16:47.406Z,0.65
2023-10-20T15:18:49.064Z,0.80
2023-10-20T15:20:51.107Z,0.47
2023-10-20T15:22:55.767Z,0.60
2023-10-20T15:25:06.010Z,0.55
2023-10-20T15:27:08.283Z,2.30
2023-10-20T15:29:10.665Z,1.92
2023-10-20T15:31:12.433Z,3.03
2023-10-20T15:33:15.201Z,0.73
2023-10-20T15:35:18.614Z,1.00
2023-10-20T15:37:20.314Z,2.47
2023-10-20T15:39:32.587Z,2.90
2023-10-20T15:41:42.246Z,8.43
2023-10-20T15:43:43.979Z,1.98
2023-10-20T15:45:46.942Z,2.15
2023-10-20T15:47:50.267Z,3.25
2023-10-20T15:49:52.481Z,1.02
2023-10-20T15:51:54.202Z,0.95
2023-10-20T15:53:55.868Z,1.80
2023-10-20T15:55:57.568Z,2.10
2023-10-20T15:57:59.224Z,1.70
2023-10-20T16:00:08.887Z,1.67
2023-10-20T16:02:11.125Z,2.92
2023-10-20T16:04:13.194Z,1.67
2023-10-20T16:06:15.393Z,2.42
2023-10-20T16:08:17.041Z,5.50
2023-10-20T16:10:22.869Z,2.03
2023-10-20T16:12:24.757Z,1.45
2023-10-20T16:14:26.863Z,2.40
2023-10-20T16:16:28.600Z,0.90
2023-10-20T16:18:30.437Z,0.95
2023-10-20T16:20:32.216Z,2.80
2023-10-20T16:22:33.962Z,2.70
2023-10-20T16:24:36.282Z,0.73
2023-10-20T16:26:37.995Z,1.88
2023-10-20T16:28:39.805Z,2.88
2023-10-20T16:30:41.560Z,2.15
2023-10-20T16:32:43.718Z,2.95
2023-10-20T16:34:50.474Z,1.08
2023-10-20T16:36:52.238Z,1.88
2023-10-20T16:38:54.141Z,1.83
2023-10-20T16:41:00.065Z,4.50
2023-10-20T16:43:02.224Z,4.60
2023-10-20T16:45:08.797Z,2.72
2023-10-20T16:47:10.814Z,2.90
2023-10-20T16:49:14.466Z,4.95
2023-10-20T16:51:16.278Z,2.63
2023-10-20T16:53:22.251Z,4.80
2023-10-20T16:55:23.954Z,3.92
2023-10-20T16:57:25.604Z,2.75
2023-10-20T16:59:27.467Z,4.03
2023-10-20T17:01:30.471Z,4.20
2023-10-20T17:03:34.052Z,3.33
2023-10-20T17:05:38.983Z,4.00
2023-10-20T17:07:41.852Z,3.80
2023-10-20T17:09:43.611Z,6.85
2023-10-20T17:11:45.708Z,4.32
2023-10-20T17:13:47.566Z,4.85
2023-10-20T17:15:49.283Z,6.05
2023-10-20T17:17:51.091Z,6.63
2023-10-20T17:19:52.883Z,4.10
2023-10-20T17:21:54.581Z,3.55
2023-10-20T17:23:56.786Z,7.78
2023-10-20T17:25:59.941Z,5.13
2023-10-20T17:28:01.628Z,6.20
2023-10-20T17:30:09.765Z,4.53
2023-10-20T17:32:12.490Z,3.45
2023-10-20T17:34:14.502Z,3.72
2023-10-20T17:36:17.097Z,5.22
2023-10-20T17:38:18.823Z,3.00
2023-10-20T17:40:20.441Z,2.53
2023-10-20T17:42:24.096Z,4.45
2023-10-20T17:44:25.785Z,8.90
2023-10-20T17:46:27.623Z,6.28
2023-10-20T17:48:30.140Z,3.30
2023-10-20T17:50:39.495Z,12.45
2023-10-20T17:52:41.158Z,5.13
2023-10-20T17:54:44.560Z,7.93
2023-10-20T17:56:46.397Z,6.40
2023-10-20T17:58:48.086Z,7.68
2023-10-20T18:00:51.836Z,3.85
2023-10-20T18:02:54.677Z,4.70
2023-10-20T18:04:56.455Z,9.88
2023-10-20T18:06:58.112Z,6.40
2023-10-20T18:08:59.882Z,8.68
2023-10-20T18:11:05.097Z,7.47
2023-10-20T18:13:06.766Z,8.30
2023-10-20T18:15:08.877Z,5.80
2023-10-20T18:17:11.897Z,10.02
2023-10-20T18:19:13.838Z,7.82
2023-10-20T18:21:20.333Z,8.18
2023-10-20T18:23:22.461Z,6.75
2023-10-20T18:25:24.153Z,5.82
2023-10-20T18:27:25.922Z,8.25
2023-10-20T18:29:27.747Z,8.90
2023-10-20T18:31:30.913Z,8.35
2023-10-20T18:33:32.687Z,7.22
2023-10-20T18:35:35.186Z,11.95
2023-10-20T18:37:37.130Z,8.95
2023-10-20T18:39:38.802Z,13.02
2023-10-20T18:41:40.723Z,12.55
2023-10-20T18:43:43.140Z,7.63
2023-10-20T18:45:54.539Z,12.30
2023-10-20T18:47:56.361Z,10.23
2023-10-20T18:49:58.750Z,13.68
2023-10-20T18:52:00.390Z,8.23
2023-10-20T18:54:02.121Z,7.30
2023-10-20T18:56:05.119Z,10.25
2023-10-20T18:58:06.749Z,8.38
2023-10-20T19:00:09.945Z,9.23
2023-10-20T19:02:11.576Z,7.30
2023-10-20T19:04:14.547Z,13.43
2023-10-20T19:06:16.584Z,9.30
2023-10-20T19:08:18.394Z,10.73
2023-10-20T19:10:20.064Z,9.48
2023-10-20T19:12:22.003Z,5.65
2023-10-20T19:14:23.662Z,12.70
2023-10-20T19:16:25.344Z,11.77
2023-10-20T19:18:27.423Z,7.65
2023-10-20T19:20:29.268Z,11.05
2023-10-20T19:22:31.066Z,15.05
2023-10-20T19:24:32.743Z,8.40
2023-10-20T19:26:34.528Z,9.27
2023-10-20T19:28:36.325Z,9.68
2023-10-20T19:30:38.334Z,8.32
2023-10-20T19:32:40.224Z,6.35
2023-10-20T19:34:41.985Z,8.45
2023-10-20T19:36:43.773Z,12.98
2023-10-20T19:38:45.554Z,7.70
2023-10-20T19:40:48.405Z,8.45
2023-10-20T19:42:50.264Z,14.82
2023-10-20T19:44:51.906Z,11.60
2023-10-20T19:46:54.800Z,12.02
2023-10-20T19:48:56.682Z,11.13
2023-10-20T19:50:58.752Z,11.52
2023-10-20T19:53:00.445Z,7.00
2023-10-20T19:55:02.282Z,13.95
2023-10-20T19:57:04.563Z,10.80
2023-10-20T19:59:07.171Z,13.50
2023-10-20T20:01:09.022Z,8.05
2023-10-20T20:03:12.065Z,11.98
2023-10-20T20:05:13.977Z,10.15
2023-10-20T20:07:15.804Z,10.15
2023-10-20T20:09:17.495Z,12.85
2023-10-20T20:11:19.196Z,10.02
2023-10-20T20:13:20.870Z,9.88
2023-10-20T20:15:24.923Z,7.55
2023-10-20T20:17:27.236Z,9.18
2023-10-20T20:19:28.901Z,8.25
2023-10-20T20:21:30.549Z,9.80
2023-10-20T20:23:32.422Z,7.78
2023-10-20T20:25:34.318Z,12.77
2023-10-20T20:27:36.205Z,13.50
2023-10-20T20:29:38.174Z,8.88
2023-10-20T20:31:40.240Z,7.22
2023-10-20T20:33:41.988Z,8.38
2023-10-20T20:35:44.013Z,6.75
2023-10-20T20:37:47.811Z,8.32
2023-10-20T20:39:49.614Z,11.10
2023-10-20T20:41:51.286Z,10.85
2023-10-20T20:43:52.957Z,7.65
2023-10-20T20:45:55.937Z,8.35
2023-10-20T20:47:58.880Z,10.38
2023-10-20T20:50:05.372Z,17.33
2023-10-20T20:52:08.492Z,8.43
2023-10-20T20:54:10.153Z,10.13
2023-10-20T20:56:11.942Z,9.45
2023-10-20T20:58:13.730Z,9.15
2023-10-20T21:00:15.959Z,14.68
2023-10-20T21:02:17.829Z,14.90
2023-10-20T21:04:21.088Z,12.65
2023-10-20T21:06:22.928Z,12.80
2023-10-20T21:08:24.826Z,17.73
2023-10-20T21:10:29.816Z,15.73
2023-10-20T21:12:31.477Z,13.02
2023-10-20T21:14:33.151Z,17.15
2023-10-20T21:16:34.899Z,15.60
2023-10-20T21:18:36.992Z,9.45
2023-10-20T21:20:39.334Z,9.48
2023-10-20T21:22:41.098Z,14.30
2023-10-20T21:24:42.780Z,17.33
2023-10-20T21:26:44.695Z,18.13
2023-10-20T21:28:46.409Z,19.05
2023-10-20T21:30:48.607Z,18.17
2023-10-20T21:32:50.648Z,11.75
2023-10-20T21:34:52.415Z,13.55
2023-10-20T21:36:55.531Z,11.88
2023-10-20T21:38:57.224Z,13.75
2023-10-20T21:40:59.203Z,13.98
2023-10-20T21:43:00.884Z,16.60
2023-10-20T21:45:03.203Z,15.95
2023-10-20T21:47:05.332Z,12.65
2023-10-20T21:49:09.155Z,14.30
2023-10-20T21:51:14.077Z,12.20
2023-10-20T21:53:17.135Z,11.40
2023-10-20T21:55:19.532Z,16.00
2023-10-20T21:57:21.336Z,15.88
2023-10-20T21:59:23.219Z,15.57
2023-10-20T22:01:25.129Z,14.35
2023-10-20T22:03:28.478Z,18.08
2023-10-20T22:05:30.554Z,17.90
2023-10-20T22:07:33.185Z,16.52
2023-10-20T22:09:50.631Z,16.85
2023-10-20T22:11:55.481Z,15.80
2023-10-20T22:13:57.192Z,22.67
2023-10-20T22:15:58.899Z,15.43
2023-10-20T22:18:03.195Z,17.25
2023-10-20T22:20:09.370Z,13.90
2023-10-20T22:22:11.712Z,17.05
2023-10-20T22:24:13.818Z,8.85
2023-10-20T22:26:16.452Z,22.10
2023-10-20T22:28:18.616Z,15.68
2023-10-20T22:30:20.517Z,16.27
2023-10-20T22:32:22.241Z,19.42
2023-10-20T22:34:26.082Z,12.50
2023-10-20T22:36:27.821Z,15.27
2023-10-20T22:38:30.169Z,15.82
2023-10-20T22:40:31.888Z,11.77
2023-10-20T22:42:33.672Z,11.70
2023-10-20T22:44:36.097Z,12.70
2023-10-20T22:46:38.752Z,16.20
2023-10-20T22:48:40.557Z,16.52
2023-10-20T22:50:43.043Z,15.82
2023-10-20T22:52:45.806Z,15.40
2023-10-20T22:54:47.775Z,12.15
2023-10-20T22:56:50.404Z,15.23
2023-10-20T22:58:52.092Z,23.63
2023-10-20T23:00:57.883Z,14.10
2023-10-20T23:02:59.669Z,12.25
2023-10-20T23:05:01.469Z,13.55
2023-10-20T23:07:03.070Z,12.80
2023-10-20T23:09:04.941Z,12.63
2023-10-20T23:11:06.739Z,16.17
2023-10-20T23:13:12.991Z,18.67
2023-10-20T23:15:14.839Z,11.07
2023-10-20T23:17:17.596Z,15.63
2023-10-20T23:19:19.296Z,17.52
2023-10-20T23:21:21.899Z,20.25
2023-10-20T23:23:23.626Z,17.80
2023-10-20T23:25:25.304Z,17.95
2023-10-20T23:27:27.278Z,16.38
2023-10-20T23:29:29.032Z,11.40
2023-10-20T23:31:30.751Z,19.92
2023-10-20T23:33:32.466Z,21.50
2023-10-20T23:35:34.469Z,14.77
2023-10-20T23:37:38.169Z,13.20
2023-10-20T23:39:39.829Z,15.27
2023-10-20T23:41:41.587Z,13.32
2023-10-20T23:43:43.328Z,17.15
2023-10-20T23:45:46.559Z,11.20
2023-10-20T23:47:48.350Z,16.63
2023-10-20T23:49:50.388Z,22.52
2023-10-20T23:51:52.957Z,13.95
2023-10-20T23:53:54.697Z,17.73
2023-10-20T23:55:56.554Z,10.57
2023-10-20T23:57:59.507Z,20.40
